sensor_id;sensor_type;location;lat;lon;timestamp;temperature;humidity
9329;DHT22;4703;48.748;19.142;2023-07-29T00:01:58;17.30;99.90
9329;DHT22;4703;48.748;19.142;2023-07-29T00:04:25;17.20;99.90
9329;DHT22;4703;48.748;19.142;2023-07-29T00:06:52;17.20;99.90
9329;DHT22;4703;48.748;19.142;2023-07-29T00:09:19;17.20;99.90
9329;DHT22;4703;48.748;19.142;2023-07-29T00:11:45;17.20;99.90
9329;DHT22;4703;48.748;19.142;2023-07-29T00:14:12;17.20;99.90
9329;DHT22;4703;48.748;19.142;2023-07-29T00:16:39;17.30;99.90
9329;DHT22;4703;48.748;19.142;2023-07-29T00:19:07;17.20;99.90
9329;DHT22;4703;48.748;19.142;2023-07-29T00:21:34;17.20;99.90
9329;DHT22;4703;48.748;19.142;2023-07-29T00:24:01;17.20;99.90
9329;DHT22;4703;48.748;19.142;2023-07-29T00:26:28;17.20;99.90
9329;DHT22;4703;48.748;19.142;2023-07-29T00:28:58;17.10;99.90
9329;DHT22;4703;48.748;19.142;2023-07-29T00:31:25;17.10;99.90
9329;DHT22;4703;48.748;19.142;2023-07-29T00:33:53;17.10;99.90
9329;DHT22;4703;48.748;19.142;2023-07-29T00:36:19;17.00;99.90
9329;DHT22;4703;48.748;19.142;2023-07-29T00:38:47;17.10;99.90
9329;DHT22;4703;48.748;19.142;2023-07-29T00:41:14;17.00;99.90
9329;DHT22;4703;48.748;19.142;2023-07-29T00:43:42;17.10;99.90
9329;DHT22;4703;48.748;19.142;2023-07-29T00:46:09;17.00;99.90
9329;DHT22;4703;48.748;19.142;2023-07-29T00:48:39;17.10;99.90
9329;DHT22;4703;48.748;19.142;2023-07-29T00:51:07;17.00;99.90
9329;DHT22;4703;48.748;19.142;2023-07-29T00:53:34;17.00;99.90
9329;DHT22;4703;48.748;19.142;2023-07-29T00:56:01;17.00;99.90
9329;DHT22;4703;48.748;19.142;2023-07-29T00:58:28;17.00;99.90
9329;DHT22;4703;48.748;19.142;2023-07-29T01:00:55;17.00;99.90
9329;DHT22;4703;48.748;19.142;2023-07-29T01:03:22;17.00;99.90
9329;DHT22;4703;48.748;19.142;2023-07-29T01:06:15;17.00;99.90
9329;DHT22;4703;48.748;19.142;2023-07-29T01:09:25;16.90;99.90
9329;DHT22;4703;48.748;19.142;2023-07-29T01:12:06;17.70;99.90
9329;DHT22;4703;48.748;19.142;2023-07-29T01:15:10;16.90;99.90
9329;DHT22;4703;48.748;19.142;2023-07-29T01:17:49;16.90;99.90
9329;DHT22;4703;48.748;19.142;2023-07-29T01:20:24;16.90;99.90
9329;DHT22;4703;48.748;19.142;2023-07-29T01:22:52;16.80;99.90
9329;DHT22;4703;48.748;19.142;2023-07-29T01:25:19;16.80;99.90
9329;DHT22;4703;48.748;19.142;2023-07-29T01:27:47;16.80;99.90
9329;DHT22;4703;48.748;19.142;2023-07-29T01:30:19;16.80;99.90
9329;DHT22;4703;48.748;19.142;2023-07-29T01:33:26;16.80;99.90
9329;DHT22;4703;48.748;19.142;2023-07-29T01:36:18;16.70;99.90
9329;DHT22;4703;48.748;19.142;2023-07-29T01:38:49;16.70;99.90
9329;DHT22;4703;48.748;19.142;2023-07-29T01:41:18;16.70;99.90
9329;DHT22;4703;48.748;19.142;2023-07-29T01:43:46;16.70;99.90
9329;DHT22;4703;48.748;19.142;2023-07-29T01:46:14;16.70;99.90
9329;DHT22;4703;48.748;19.142;2023-07-29T01:48:42;16.70;99.90
9329;DHT22;4703;48.748;19.142;2023-07-29T01:51:11;16.70;99.90
9329;DHT22;4703;48.748;19.142;2023-07-29T01:53:39;16.60;99.90
9329;DHT22;4703;48.748;19.142;2023-07-29T01:56:06;16.60;99.90
9329;DHT22;4703;48.748;19.142;2023-07-29T01:58:33;16.60;99.90
9329;DHT22;4703;48.748;19.142;2023-07-29T02:01:00;16.60;99.90
9329;DHT22;4703;48.748;19.142;2023-07-29T02:03:27;16.50;99.90
9329;DHT22;4703;48.748;19.142;2023-07-29T02:05:54;16.50;99.90
9329;DHT22;4703;48.748;19.142;2023-07-29T02:08:21;16.60;99.90
9329;DHT22;4703;48.748;19.142;2023-07-29T02:10:48;16.50;99.90
9329;DHT22;4703;48.748;19.142;2023-07-29T02:13:16;16.60;99.90
9329;DHT22;4703;48.748;19.142;2023-07-29T02:15:43;16.50;99.90
9329;DHT22;4703;48.748;19.142;2023-07-29T02:18:10;16.50;99.90
9329;DHT22;4703;48.748;19.142;2023-07-29T02:20:37;16.40;99.90
9329;DHT22;4703;48.748;19.142;2023-07-29T02:23:04;16.60;99.90
9329;DHT22;4703;48.748;19.142;2023-07-29T02:25:31;16.60;99.90
9329;DHT22;4703;48.748;19.142;2023-07-29T02:28:02;16.30;99.90
9329;DHT22;4703;48.748;19.142;2023-07-29T02:30:30;16.30;99.90
9329;DHT22;4703;48.748;19.142;2023-07-29T02:32:57;16.40;99.90
9329;DHT22;4703;48.748;19.142;2023-07-29T02:35:24;16.40;99.90
9329;DHT22;4703;48.748;19.142;2023-07-29T02:37:52;16.30;99.90
9329;DHT22;4703;48.748;19.142;2023-07-29T02:40:19;16.30;99.90
9329;DHT22;4703;48.748;19.142;2023-07-29T02:42:47;16.30;99.90
9329;DHT22;4703;48.748;19.142;2023-07-29T02:45:14;16.50;99.90
9329;DHT22;4703;48.748;19.142;2023-07-29T02:47:41;16.20;99.90
9329;DHT22;4703;48.748;19.142;2023-07-29T02:50:08;16.20;99.90
9329;DHT22;4703;48.748;19.142;2023-07-29T02:52:35;16.30;99.90
9329;DHT22;4703;48.748;19.142;2023-07-29T02:55:02;16.20;99.90
9329;DHT22;4703;48.748;19.142;2023-07-29T02:57:29;16.20;99.90
9329;DHT22;4703;48.748;19.142;2023-07-29T02:59:56;16.40;99.90
9329;DHT22;4703;48.748;19.142;2023-07-29T03:02:23;16.20;99.90
9329;DHT22;4703;48.748;19.142;2023-07-29T03:04:50;16.60;99.90
9329;DHT22;4703;48.748;19.142;2023-07-29T03:07:17;16.40;99.90
9329;DHT22;4703;48.748;19.142;2023-07-29T03:09:44;16.80;99.90
9329;DHT22;4703;48.748;19.142;2023-07-29T03:12:11;16.20;99.90
9329;DHT22;4703;48.748;19.142;2023-07-29T03:14:38;16.30;99.90
9329;DHT22;4703;48.748;19.142;2023-07-29T03:17:05;16.30;99.90
9329;DHT22;4703;48.748;19.142;2023-07-29T03:19:32;16.20;99.90
9329;DHT22;4703;48.748;19.142;2023-07-29T03:21:59;18.10;99.90
9329;DHT22;4703;48.748;19.142;2023-07-29T03:24:26;16.30;99.90
9329;DHT22;4703;48.748;19.142;2023-07-29T03:26:53;16.90;99.90
9329;DHT22;4703;48.748;19.142;2023-07-29T03:29:20;16.30;99.90
9329;DHT22;4703;48.748;19.142;2023-07-29T03:31:47;16.30;99.90
9329;DHT22;4703;48.748;19.142;2023-07-29T03:34:14;16.20;99.90
9329;DHT22;4703;48.748;19.142;2023-07-29T03:36:41;16.20;99.90
9329;DHT22;4703;48.748;19.142;2023-07-29T03:39:08;16.70;99.90
9329;DHT22;4703;48.748;19.142;2023-07-29T03:41:35;16.40;99.90
9329;DHT22;4703;48.748;19.142;2023-07-29T03:44:02;16.20;99.90
9329;DHT22;4703;48.748;19.142;2023-07-29T03:46:29;16.20;99.90
9329;DHT22;4703;48.748;19.142;2023-07-29T03:48:56;16.40;99.90
9329;DHT22;4703;48.748;19.142;2023-07-29T03:51:24;16.30;99.90
9329;DHT22;4703;48.748;19.142;2023-07-29T03:53:51;16.20;99.90
9329;DHT22;4703;48.748;19.142;2023-07-29T03:56:18;16.20;99.90
9329;DHT22;4703;48.748;19.142;2023-07-29T03:58:46;16.80;99.90
9329;DHT22;4703;48.748;19.142;2023-07-29T04:01:14;16.20;99.90
9329;DHT22;4703;48.748;19.142;2023-07-29T04:03:41;16.20;99.90
9329;DHT22;4703;48.748;19.142;2023-07-29T04:06:08;16.20;99.90
9329;DHT22;4703;48.748;19.142;2023-07-29T04:08:36;16.40;99.90
9329;DHT22;4703;48.748;19.142;2023-07-29T04:11:03;16.70;99.90
9329;DHT22;4703;48.748;19.142;2023-07-29T04:13:30;16.20;99.90
9329;DHT22;4703;48.748;19.142;2023-07-29T04:15:57;16.70;99.90
9329;DHT22;4703;48.748;19.142;2023-07-29T04:18:24;16.20;99.90
9329;DHT22;4703;48.748;19.142;2023-07-29T04:20:51;16.40;99.90
9329;DHT22;4703;48.748;19.142;2023-07-29T04:23:17;16.30;99.90
9329;DHT22;4703;48.748;19.142;2023-07-29T04:25:44;16.30;99.90
9329;DHT22;4703;48.748;19.142;2023-07-29T04:28:11;16.30;99.90
9329;DHT22;4703;48.748;19.142;2023-07-29T04:30:39;16.30;99.90
9329;DHT22;4703;48.748;19.142;2023-07-29T04:33:05;16.50;99.90
9329;DHT22;4703;48.748;19.142;2023-07-29T04:35:32;16.40;99.90
9329;DHT22;4703;48.748;19.142;2023-07-29T04:38:00;16.40;99.90
9329;DHT22;4703;48.748;19.142;2023-07-29T04:40:26;16.40;99.90
9329;DHT22;4703;48.748;19.142;2023-07-29T04:42:54;16.60;99.90
9329;DHT22;4703;48.748;19.142;2023-07-29T04:45:21;16.50;99.90
9329;DHT22;4703;48.748;19.142;2023-07-29T04:47:48;16.60;99.90
9329;DHT22;4703;48.748;19.142;2023-07-29T04:50:15;16.60;99.90
9329;DHT22;4703;48.748;19.142;2023-07-29T04:52:42;16.50;99.90
9329;DHT22;4703;48.748;19.142;2023-07-29T04:55:09;16.50;99.90
9329;DHT22;4703;48.748;19.142;2023-07-29T04:57:36;16.60;99.90
9329;DHT22;4703;48.748;19.142;2023-07-29T05:00:03;16.60;99.90
9329;DHT22;4703;48.748;19.142;2023-07-29T05:02:30;16.60;99.90
9329;DHT22;4703;48.748;19.142;2023-07-29T05:04:57;16.60;99.90
9329;DHT22;4703;48.748;19.142;2023-07-29T05:07:24;16.70;99.90
9329;DHT22;4703;48.748;19.142;2023-07-29T05:09:51;16.60;99.90
9329;DHT22;4703;48.748;19.142;2023-07-29T05:12:18;16.60;99.90
9329;DHT22;4703;48.748;19.142;2023-07-29T05:14:45;16.60;99.90
9329;DHT22;4703;48.748;19.142;2023-07-29T05:17:13;16.80;99.90
9329;DHT22;4703;48.748;19.142;2023-07-29T05:19:40;16.70;99.90
9329;DHT22;4703;48.748;19.142;2023-07-29T05:22:07;16.70;99.90
9329;DHT22;4703;48.748;19.142;2023-07-29T05:24:34;16.80;99.90
9329;DHT22;4703;48.748;19.142;2023-07-29T05:27:01;16.80;99.90
9329;DHT22;4703;48.748;19.142;2023-07-29T05:29:28;16.80;99.90
9329;DHT22;4703;48.748;19.142;2023-07-29T05:31:55;16.90;99.90
9329;DHT22;4703;48.748;19.142;2023-07-29T05:34:23;16.90;99.90
9329;DHT22;4703;48.748;19.142;2023-07-29T05:36:50;17.00;99.90
9329;DHT22;4703;48.748;19.142;2023-07-29T05:39:17;17.00;99.90
9329;DHT22;4703;48.748;19.142;2023-07-29T05:41:44;17.10;99.90
9329;DHT22;4703;48.748;19.142;2023-07-29T05:44:12;17.10;99.90
9329;DHT22;4703;48.748;19.142;2023-07-29T05:46:39;17.20;99.90
9329;DHT22;4703;48.748;19.142;2023-07-29T05:49:06;17.30;99.90
9329;DHT22;4703;48.748;19.142;2023-07-29T05:51:33;17.30;99.90
9329;DHT22;4703;48.748;19.142;2023-07-29T05:54:00;17.40;99.90
9329;DHT22;4703;48.748;19.142;2023-07-29T05:56:27;17.40;99.90
9329;DHT22;4703;48.748;19.142;2023-07-29T05:58:54;17.50;99.90
9329;DHT22;4703;48.748;19.142;2023-07-29T06:01:21;17.60;99.90
9329;DHT22;4703;48.748;19.142;2023-07-29T06:03:49;17.70;99.90
9329;DHT22;4703;48.748;19.142;2023-07-29T06:06:16;17.70;99.90
9329;DHT22;4703;48.748;19.142;2023-07-29T06:08:43;17.80;99.90
9329;DHT22;4703;48.748;19.142;2023-07-29T06:11:10;17.90;99.90
9329;DHT22;4703;48.748;19.142;2023-07-29T06:13:37;18.00;99.90
9329;DHT22;4703;48.748;19.142;2023-07-29T06:16:04;18.10;99.90
9329;DHT22;4703;48.748;19.142;2023-07-29T06:18:31;18.10;99.90
9329;DHT22;4703;48.748;19.142;2023-07-29T06:20:58;18.20;99.90
9329;DHT22;4703;48.748;19.142;2023-07-29T06:23:25;18.20;99.90
9329;DHT22;4703;48.748;19.142;2023-07-29T06:25:52;18.30;99.90
9329;DHT22;4703;48.748;19.142;2023-07-29T06:28:19;18.40;99.90
9329;DHT22;4703;48.748;19.142;2023-07-29T06:30:46;18.40;99.90
9329;DHT22;4703;48.748;19.142;2023-07-29T06:33:13;18.50;99.90
9329;DHT22;4703;48.748;19.142;2023-07-29T06:35:41;18.40;99.90
9329;DHT22;4703;48.748;19.142;2023-07-29T06:38:08;18.60;99.90
9329;DHT22;4703;48.748;19.142;2023-07-29T06:40:35;18.60;99.90
9329;DHT22;4703;48.748;19.142;2023-07-29T06:43:02;18.80;99.90
9329;DHT22;4703;48.748;19.142;2023-07-29T06:45:29;18.80;99.90
9329;DHT22;4703;48.748;19.142;2023-07-29T06:47:56;18.70;99.90
9329;DHT22;4703;48.748;19.142;2023-07-29T06:50:24;19.00;99.90
9329;DHT22;4703;48.748;19.142;2023-07-29T06:52:51;18.90;99.90
9329;DHT22;4703;48.748;19.142;2023-07-29T06:55:18;19.00;99.90
9329;DHT22;4703;48.748;19.142;2023-07-29T06:57:46;19.00;99.90
9329;DHT22;4703;48.748;19.142;2023-07-29T07:00:13;19.10;99.90
9329;DHT22;4703;48.748;19.142;2023-07-29T07:02:40;19.10;99.90
9329;DHT22;4703;48.748;19.142;2023-07-29T07:05:08;19.20;99.90
9329;DHT22;4703;48.748;19.142;2023-07-29T07:07:35;19.30;99.90
9329;DHT22;4703;48.748;19.142;2023-07-29T07:10:02;19.30;99.90
9329;DHT22;4703;48.748;19.142;2023-07-29T07:12:29;19.40;99.90
9329;DHT22;4703;48.748;19.142;2023-07-29T07:14:56;19.40;99.90
9329;DHT22;4703;48.748;19.142;2023-07-29T07:17:23;19.60;99.90
9329;DHT22;4703;48.748;19.142;2023-07-29T07:19:50;19.60;99.90
9329;DHT22;4703;48.748;19.142;2023-07-29T07:22:17;19.70;99.90
9329;DHT22;4703;48.748;19.142;2023-07-29T07:24:44;19.80;99.90
9329;DHT22;4703;48.748;19.142;2023-07-29T07:27:11;19.80;99.90
9329;DHT22;4703;48.748;19.142;2023-07-29T07:29:38;19.90;99.90
9329;DHT22;4703;48.748;19.142;2023-07-29T07:32:05;19.90;99.90
9329;DHT22;4703;48.748;19.142;2023-07-29T07:34:32;19.90;99.90
9329;DHT22;4703;48.748;19.142;2023-07-29T07:37:01;20.00;99.90
9329;DHT22;4703;48.748;19.142;2023-07-29T07:39:28;20.10;99.90
9329;DHT22;4703;48.748;19.142;2023-07-29T07:41:54;20.10;99.90
9329;DHT22;4703;48.748;19.142;2023-07-29T07:44:21;20.10;99.90
9329;DHT22;4703;48.748;19.142;2023-07-29T07:46:48;20.10;99.90
9329;DHT22;4703;48.748;19.142;2023-07-29T07:49:15;20.20;99.90
9329;DHT22;4703;48.748;19.142;2023-07-29T07:51:44;20.30;99.90
9329;DHT22;4703;48.748;19.142;2023-07-29T07:54:11;20.40;99.90
9329;DHT22;4703;48.748;19.142;2023-07-29T07:56:38;20.40;99.90
9329;DHT22;4703;48.748;19.142;2023-07-29T07:59:05;20.50;99.90
9329;DHT22;4703;48.748;19.142;2023-07-29T08:01:36;20.50;99.90
9329;DHT22;4703;48.748;19.142;2023-07-29T08:04:04;20.60;99.90
9329;DHT22;4703;48.748;19.142;2023-07-29T08:06:32;20.60;99.90
9329;DHT22;4703;48.748;19.142;2023-07-29T08:08:59;20.80;99.90
9329;DHT22;4703;48.748;19.142;2023-07-29T08:11:27;20.80;99.90
9329;DHT22;4703;48.748;19.142;2023-07-29T08:13:53;20.90;99.90
9329;DHT22;4703;48.748;19.142;2023-07-29T08:16:20;20.90;99.90
9329;DHT22;4703;48.748;19.142;2023-07-29T08:18:48;21.00;99.90
9329;DHT22;4703;48.748;19.142;2023-07-29T08:21:15;21.10;99.90
9329;DHT22;4703;48.748;19.142;2023-07-29T08:23:42;21.20;99.90
9329;DHT22;4703;48.748;19.142;2023-07-29T08:26:09;21.30;99.90
9329;DHT22;4703;48.748;19.142;2023-07-29T08:28:37;21.40;99.90
9329;DHT22;4703;48.748;19.142;2023-07-29T08:31:07;21.40;99.90
9329;DHT22;4703;48.748;19.142;2023-07-29T08:33:34;21.60;99.90
9329;DHT22;4703;48.748;19.142;2023-07-29T08:36:02;21.60;99.90
9329;DHT22;4703;48.748;19.142;2023-07-29T08:38:30;21.60;99.90
9329;DHT22;4703;48.748;19.142;2023-07-29T08:44:09;21.70;99.90
9329;DHT22;4703;48.748;19.142;2023-07-29T08:46:50;21.70;99.90
9329;DHT22;4703;48.748;19.142;2023-07-29T08:49:18;21.80;99.90
9329;DHT22;4703;48.748;19.142;2023-07-29T08:51:46;21.90;99.90
9329;DHT22;4703;48.748;19.142;2023-07-29T08:54:15;22.00;99.90
9329;DHT22;4703;48.748;19.142;2023-07-29T08:56:43;22.00;99.90
9329;DHT22;4703;48.748;19.142;2023-07-29T08:59:11;22.10;99.90
9329;DHT22;4703;48.748;19.142;2023-07-29T09:01:38;22.10;99.90
9329;DHT22;4703;48.748;19.142;2023-07-29T09:04:05;22.20;99.90
9329;DHT22;4703;48.748;19.142;2023-07-29T09:06:33;22.20;99.90
9329;DHT22;4703;48.748;19.142;2023-07-29T09:09:02;22.10;99.90
9329;DHT22;4703;48.748;19.142;2023-07-29T09:11:30;22.20;99.90
9329;DHT22;4703;48.748;19.142;2023-07-29T09:13:57;22.40;99.90
9329;DHT22;4703;48.748;19.142;2023-07-29T09:16:24;22.50;99.90
9329;DHT22;4703;48.748;19.142;2023-07-29T09:18:51;22.60;99.90
9329;DHT22;4703;48.748;19.142;2023-07-29T09:21:25;22.60;99.90
9329;DHT22;4703;48.748;19.142;2023-07-29T09:23:53;22.70;99.90
9329;DHT22;4703;48.748;19.142;2023-07-29T09:26:28;22.80;99.90
9329;DHT22;4703;48.748;19.142;2023-07-29T09:28:56;22.90;99.90
9329;DHT22;4703;48.748;19.142;2023-07-29T09:31:28;23.20;99.90
9329;DHT22;4703;48.748;19.142;2023-07-29T09:33:58;23.20;99.90
9329;DHT22;4703;48.748;19.142;2023-07-29T09:36:26;23.30;99.90
9329;DHT22;4703;48.748;19.142;2023-07-29T09:38:54;23.50;99.90
9329;DHT22;4703;48.748;19.142;2023-07-29T09:41:26;23.50;99.90
9329;DHT22;4703;48.748;19.142;2023-07-29T09:43:59;23.80;99.90
9329;DHT22;4703;48.748;19.142;2023-07-29T09:46:35;23.80;99.90
9329;DHT22;4703;48.748;19.142;2023-07-29T09:49:05;23.90;99.90
9329;DHT22;4703;48.748;19.142;2023-07-29T09:51:38;24.00;99.90
9329;DHT22;4703;48.748;19.142;2023-07-29T09:54:09;24.10;99.90
9329;DHT22;4703;48.748;19.142;2023-07-29T09:56:42;24.10;99.90
9329;DHT22;4703;48.748;19.142;2023-07-29T09:59:11;24.00;99.90
9329;DHT22;4703;48.748;19.142;2023-07-29T10:01:39;24.00;99.90
9329;DHT22;4703;48.748;19.142;2023-07-29T10:04:07;23.90;99.90
9329;DHT22;4703;48.748;19.142;2023-07-29T10:06:39;23.80;99.90
9329;DHT22;4703;48.748;19.142;2023-07-29T10:09:07;23.60;99.90
9329;DHT22;4703;48.748;19.142;2023-07-29T10:11:35;23.50;99.90
9329;DHT22;4703;48.748;19.142;2023-07-29T10:14:03;23.40;99.90
9329;DHT22;4703;48.748;19.142;2023-07-29T10:16:36;23.30;99.90
9329;DHT22;4703;48.748;19.142;2023-07-29T10:19:04;23.20;99.90
9329;DHT22;4703;48.748;19.142;2023-07-29T10:21:32;23.20;99.90
9329;DHT22;4703;48.748;19.142;2023-07-29T10:24:01;23.30;99.90
9329;DHT22;4703;48.748;19.142;2023-07-29T10:26:31;23.50;99.90
9329;DHT22;4703;48.748;19.142;2023-07-29T10:28:59;23.70;99.90
9329;DHT22;4703;48.748;19.142;2023-07-29T10:31:32;23.90;99.90
9329;DHT22;4703;48.748;19.142;2023-07-29T10:34:00;24.10;99.90
9329;DHT22;4703;48.748;19.142;2023-07-29T10:36:28;24.40;99.90
9329;DHT22;4703;48.748;19.142;2023-07-29T10:38:55;24.60;99.90
9329;DHT22;4703;48.748;19.142;2023-07-29T10:41:22;24.70;99.90
9329;DHT22;4703;48.748;19.142;2023-07-29T10:43:49;24.80;99.90
9329;DHT22;4703;48.748;19.142;2023-07-29T10:46:21;24.80;99.90
9329;DHT22;4703;48.748;19.142;2023-07-29T10:48:54;25.00;99.90
9329;DHT22;4703;48.748;19.142;2023-07-29T10:51:36;25.30;99.90
9329;DHT22;4703;48.748;19.142;2023-07-29T10:54:11;25.70;99.10
9329;DHT22;4703;48.748;19.142;2023-07-29T10:56:42;26.00;98.40
9329;DHT22;4703;48.748;19.142;2023-07-29T11:01:58;26.50;97.80
9329;DHT22;4703;48.748;19.142;2023-07-29T11:04:29;26.60;97.30
9329;DHT22;4703;48.748;19.142;2023-07-29T11:15:29;26.10;96.00
9329;DHT22;4703;48.748;19.142;2023-07-29T11:17:59;25.80;94.40
9329;DHT22;4703;48.748;19.142;2023-07-29T11:20:29;25.60;93.80
9329;DHT22;4703;48.748;19.142;2023-07-29T11:22:59;25.40;94.10
9329;DHT22;4703;48.748;19.142;2023-07-29T11:25:29;25.40;95.10
9329;DHT22;4703;48.748;19.142;2023-07-29T11:27:58;25.30;95.80
9329;DHT22;4703;48.748;19.142;2023-07-29T11:30:29;25.30;97.10
9329;DHT22;4703;48.748;19.142;2023-07-29T11:32:58;25.10;97.70
9329;DHT22;4703;48.748;19.142;2023-07-29T11:35:25;25.10;98.80
9329;DHT22;4703;48.748;19.142;2023-07-29T11:37:54;25.00;99.90
9329;DHT22;4703;48.748;19.142;2023-07-29T11:40:24;25.00;99.90
9329;DHT22;4703;48.748;19.142;2023-07-29T11:42:52;25.00;99.90
9329;DHT22;4703;48.748;19.142;2023-07-29T11:45:21;25.00;99.90
9329;DHT22;4703;48.748;19.142;2023-07-29T11:47:58;24.90;99.90
9329;DHT22;4703;48.748;19.142;2023-07-29T11:50:25;24.70;99.90
9329;DHT22;4703;48.748;19.142;2023-07-29T11:52:53;24.70;99.90
9329;DHT22;4703;48.748;19.142;2023-07-29T11:55:21;24.70;99.90
9329;DHT22;4703;48.748;19.142;2023-07-29T11:57:51;24.90;99.90
9329;DHT22;4703;48.748;19.142;2023-07-29T12:00:18;24.90;99.90
9329;DHT22;4703;48.748;19.142;2023-07-29T12:02:48;25.00;99.90
9329;DHT22;4703;48.748;19.142;2023-07-29T12:05:17;25.10;99.90
9329;DHT22;4703;48.748;19.142;2023-07-29T12:07:45;25.00;99.90
9329;DHT22;4703;48.748;19.142;2023-07-29T12:10:12;25.00;99.90
9329;DHT22;4703;48.748;19.142;2023-07-29T12:12:47;24.90;99.90
9329;DHT22;4703;48.748;19.142;2023-07-29T12:15:26;24.80;99.90
9329;DHT22;4703;48.748;19.142;2023-07-29T12:17:58;24.70;99.90
9329;DHT22;4703;48.748;19.142;2023-07-29T12:20:27;24.60;99.90
9329;DHT22;4703;48.748;19.142;2023-07-29T12:22:58;24.50;99.90
9329;DHT22;4703;48.748;19.142;2023-07-29T12:25:28;24.50;99.90
9329;DHT22;4703;48.748;19.142;2023-07-29T12:27:55;24.40;99.90
9329;DHT22;4703;48.748;19.142;2023-07-29T12:30:23;24.30;99.90
9329;DHT22;4703;48.748;19.142;2023-07-29T12:32:52;24.20;99.90
9329;DHT22;4703;48.748;19.142;2023-07-29T12:35:19;24.10;99.90
9329;DHT22;4703;48.748;19.142;2023-07-29T12:37:46;24.00;99.90
9329;DHT22;4703;48.748;19.142;2023-07-29T12:40:23;23.90;99.90
9329;DHT22;4703;48.748;19.142;2023-07-29T12:42:51;23.90;99.90
9329;DHT22;4703;48.748;19.142;2023-07-29T12:45:18;24.00;99.90
9329;DHT22;4703;48.748;19.142;2023-07-29T12:47:45;24.10;99.90
9329;DHT22;4703;48.748;19.142;2023-07-29T12:50:12;24.10;99.90
9329;DHT22;4703;48.748;19.142;2023-07-29T12:52:39;24.30;99.90
9329;DHT22;4703;48.748;19.142;2023-07-29T12:55:07;24.50;99.90
9329;DHT22;4703;48.748;19.142;2023-07-29T12:57:41;24.60;99.90
9329;DHT22;4703;48.748;19.142;2023-07-29T13:00:10;24.50;99.90
9329;DHT22;4703;48.748;19.142;2023-07-29T13:02:38;24.50;99.90
9329;DHT22;4703;48.748;19.142;2023-07-29T13:05:06;24.50;99.90
9329;DHT22;4703;48.748;19.142;2023-07-29T13:07:35;24.40;99.90
9329;DHT22;4703;48.748;19.142;2023-07-29T13:10:02;24.30;99.90
9329;DHT22;4703;48.748;19.142;2023-07-29T13:12:29;24.10;99.90
9329;DHT22;4703;48.748;19.142;2023-07-29T13:14:56;23.90;99.90
9329;DHT22;4703;48.748;19.142;2023-07-29T13:17:24;23.80;99.90
9329;DHT22;4703;48.748;19.142;2023-07-29T13:19:51;23.60;99.90
9329;DHT22;4703;48.748;19.142;2023-07-29T13:22:20;23.40;99.90
9329;DHT22;4703;48.748;19.142;2023-07-29T13:24:47;23.20;99.90
9329;DHT22;4703;48.748;19.142;2023-07-29T13:27:14;23.00;99.90
9329;DHT22;4703;48.748;19.142;2023-07-29T13:29:41;22.80;99.90
9329;DHT22;4703;48.748;19.142;2023-07-29T13:32:08;22.60;99.90
9329;DHT22;4703;48.748;19.142;2023-07-29T13:34:35;22.40;99.90
9329;DHT22;4703;48.748;19.142;2023-07-29T13:37:02;22.30;99.90
9329;DHT22;4703;48.748;19.142;2023-07-29T13:39:29;22.10;99.90
9329;DHT22;4703;48.748;19.142;2023-07-29T13:41:56;22.10;99.90
9329;DHT22;4703;48.748;19.142;2023-07-29T13:44:23;22.00;99.90
9329;DHT22;4703;48.748;19.142;2023-07-29T13:46:50;22.00;99.90
9329;DHT22;4703;48.748;19.142;2023-07-29T13:49:17;21.90;99.90
9329;DHT22;4703;48.748;19.142;2023-07-29T13:51:45;21.90;99.90
9329;DHT22;4703;48.748;19.142;2023-07-29T13:54:12;22.10;99.90
9329;DHT22;4703;48.748;19.142;2023-07-29T13:56:39;22.40;99.90
9329;DHT22;4703;48.748;19.142;2023-07-29T13:59:06;22.70;99.90
9329;DHT22;4703;48.748;19.142;2023-07-29T14:01:33;23.00;99.90
9329;DHT22;4703;48.748;19.142;2023-07-29T14:04:00;23.20;99.90
9329;DHT22;4703;48.748;19.142;2023-07-29T14:06:27;23.40;99.90
9329;DHT22;4703;48.748;19.142;2023-07-29T14:09:10;23.50;99.90
9329;DHT22;4703;48.748;19.142;2023-07-29T14:11:37;23.70;99.90
9329;DHT22;4703;48.748;19.142;2023-07-29T14:14:07;23.80;99.90
9329;DHT22;4703;48.748;19.142;2023-07-29T14:16:34;23.90;99.90
9329;DHT22;4703;48.748;19.142;2023-07-29T14:19:02;24.00;99.90
9329;DHT22;4703;48.748;19.142;2023-07-29T14:21:29;24.10;99.90
9329;DHT22;4703;48.748;19.142;2023-07-29T14:23:56;24.20;99.90
9329;DHT22;4703;48.748;19.142;2023-07-29T14:26:23;24.20;99.90
9329;DHT22;4703;48.748;19.142;2023-07-29T14:28:50;24.30;99.90
9329;DHT22;4703;48.748;19.142;2023-07-29T14:31:17;24.50;99.90
9329;DHT22;4703;48.748;19.142;2023-07-29T14:33:44;24.60;99.90
9329;DHT22;4703;48.748;19.142;2023-07-29T14:36:11;24.50;99.90
9329;DHT22;4703;48.748;19.142;2023-07-29T14:38:38;24.50;99.90
9329;DHT22;4703;48.748;19.142;2023-07-29T14:41:05;24.60;99.90
9329;DHT22;4703;48.748;19.142;2023-07-29T14:43:33;24.60;99.90
9329;DHT22;4703;48.748;19.142;2023-07-29T14:46:01;24.70;99.90
9329;DHT22;4703;48.748;19.142;2023-07-29T14:48:29;24.90;99.90
9329;DHT22;4703;48.748;19.142;2023-07-29T14:50:56;25.30;99.90
9329;DHT22;4703;48.748;19.142;2023-07-29T14:53:23;25.50;99.90
9329;DHT22;4703;48.748;19.142;2023-07-29T14:55:51;25.80;99.90
9329;DHT22;4703;48.748;19.142;2023-07-29T14:58:18;26.00;99.90
9329;DHT22;4703;48.748;19.142;2023-07-29T15:00:45;26.20;99.90
9329;DHT22;4703;48.748;19.142;2023-07-29T15:03:12;26.20;99.90
9329;DHT22;4703;48.748;19.142;2023-07-29T15:05:39;26.10;99.90
9329;DHT22;4703;48.748;19.142;2023-07-29T15:08:07;26.20;99.90
9329;DHT22;4703;48.748;19.142;2023-07-29T15:10:34;26.40;99.90
9329;DHT22;4703;48.748;19.142;2023-07-29T15:13:02;26.70;99.90
9329;DHT22;4703;48.748;19.142;2023-07-29T15:15:29;27.40;99.90
9329;DHT22;4703;48.748;19.142;2023-07-29T15:17:56;28.10;99.90
9329;DHT22;4703;48.748;19.142;2023-07-29T15:20:24;28.60;99.90
9329;DHT22;4703;48.748;19.142;2023-07-29T15:22:50;29.00;99.90
9329;DHT22;4703;48.748;19.142;2023-07-29T15:25:18;29.50;99.90
9329;DHT22;4703;48.748;19.142;2023-07-29T15:27:45;29.90;98.90
9329;DHT22;4703;48.748;19.142;2023-07-29T15:30:12;30.00;98.60
9329;DHT22;4703;48.748;19.142;2023-07-29T15:32:39;29.90;99.10
9329;DHT22;4703;48.748;19.142;2023-07-29T15:35:08;29.70;98.80
9329;DHT22;4703;48.748;19.142;2023-07-29T15:37:35;29.60;99.40
9329;DHT22;4703;48.748;19.142;2023-07-29T15:40:03;29.60;98.40
9329;DHT22;4703;48.748;19.142;2023-07-29T15:42:30;29.30;98.30
9329;DHT22;4703;48.748;19.142;2023-07-29T15:44:57;29.00;98.60
9329;DHT22;4703;48.748;19.142;2023-07-29T15:47:24;28.70;99.50
9329;DHT22;4703;48.748;19.142;2023-07-29T15:49:51;28.30;99.90
9329;DHT22;4703;48.748;19.142;2023-07-29T15:52:18;28.00;99.90
9329;DHT22;4703;48.748;19.142;2023-07-29T15:54:46;27.80;99.90
9329;DHT22;4703;48.748;19.142;2023-07-29T15:57:14;28.10;99.90
9329;DHT22;4703;48.748;19.142;2023-07-29T15:59:41;28.60;99.90
9329;DHT22;4703;48.748;19.142;2023-07-29T16:02:08;29.30;99.90
9329;DHT22;4703;48.748;19.142;2023-07-29T16:04:36;29.90;99.90
9329;DHT22;4703;48.748;19.142;2023-07-29T16:07:03;30.10;98.50